sensor_id;sensor_type;location;lat;lon;timestamp;temperature;humidity
27567;DHT22;15006;48.584;9.186;2022-08-01T00:00:05;15.20;61.60
27567;DHT22;15006;48.584;9.186;2022-08-01T00:02:40;15.20;62.00
27567;DHT22;15006;48.584;9.186;2022-08-01T00:05:09;15.10;62.50
27567;DHT22;15006;48.584;9.186;2022-08-01T00:07:40;15.00;62.50
27567;DHT22;15006;48.584;9.186;2022-08-01T00:10:12;15.00;63.00
27567;DHT22;15006;48.584;9.186;2022-08-01T00:12:41;14.90;63.50
27567;DHT22;15006;48.584;9.186;2022-08-01T00:15:09;14.90;63.50
27567;DHT22;15006;48.584;9.186;2022-08-01T00:17:37;14.80;63.50
27567;DHT22;15006;48.584;9.186;2022-08-01T00:20:05;14.80;63.90
27567;DHT22;15006;48.584;9.186;2022-08-01T00:22:34;14.80;64.60
27567;DHT22;15006;48.584;9.186;2022-08-01T00:25:00;14.80;64.60
27567;DHT22;15006;48.584;9.186;2022-08-01T00:27:27;14.80;64.50
27567;DHT22;15006;48.584;9.186;2022-08-01T00:29:53;14.80;64.80
27567;DHT22;15006;48.584;9.186;2022-08-01T00:32:19;14.80;64.80
27567;DHT22;15006;48.584;9.186;2022-08-01T00:34:45;14.80;64.90
27567;DHT22;15006;48.584;9.186;2022-08-01T00:37:11;14.80;65.10
27567;DHT22;15006;48.584;9.186;2022-08-01T00:39:37;14.80;65.10
27567;DHT22;15006;48.584;9.186;2022-08-01T00:42:08;14.80;65.10
27567;DHT22;15006;48.584;9.186;2022-08-01T00:44:35;14.80;65.80
27567;DHT22;15006;48.584;9.186;2022-08-01T00:47:02;14.80;64.90
27567;DHT22;15006;48.584;9.186;2022-08-01T00:49:29;14.80;65.30
27567;DHT22;15006;48.584;9.186;2022-08-01T00:51:55;14.80;65.50
27567;DHT22;15006;48.584;9.186;2022-08-01T00:54:24;14.80;65.70
27567;DHT22;15006;48.584;9.186;2022-08-01T00:56:51;14.80;65.80
27567;DHT22;15006;48.584;9.186;2022-08-01T00:59:17;14.80;65.70
27567;DHT22;15006;48.584;9.186;2022-08-01T01:01:45;14.70;65.60
27567;DHT22;15006;48.584;9.186;2022-08-01T01:04:13;14.70;65.60
27567;DHT22;15006;48.584;9.186;2022-08-01T01:13:11;14.60;66.20
27567;DHT22;15006;48.584;9.186;2022-08-01T01:15:49;14.50;66.00
27567;DHT22;15006;48.584;9.186;2022-08-01T01:18:34;14.50;66.10
27567;DHT22;15006;48.584;9.186;2022-08-01T01:26:51;14.30;66.70
27567;DHT22;15006;48.584;9.186;2022-08-01T01:29:35;14.30;66.70
27567;DHT22;15006;48.584;9.186;2022-08-01T01:32:15;14.30;66.50
27567;DHT22;15006;48.584;9.186;2022-08-01T01:34:44;14.30;65.70
27567;DHT22;15006;48.584;9.186;2022-08-01T01:37:16;14.20;65.80
27567;DHT22;15006;48.584;9.186;2022-08-01T01:39:44;14.20;66.70
27567;DHT22;15006;48.584;9.186;2022-08-01T01:42:12;14.20;66.60
27567;DHT22;15006;48.584;9.186;2022-08-01T01:44:41;14.20;67.10
27567;DHT22;15006;48.584;9.186;2022-08-01T01:47:09;14.10;67.40
27567;DHT22;15006;48.584;9.186;2022-08-01T01:49:40;14.10;67.80
27567;DHT22;15006;48.584;9.186;2022-08-01T01:52:07;14.10;68.10
27567;DHT22;15006;48.584;9.186;2022-08-01T01:54:40;14.10;68.30
27567;DHT22;15006;48.584;9.186;2022-08-01T01:57:11;14.10;68.70
27567;DHT22;15006;48.584;9.186;2022-08-01T01:59:39;14.10;68.40
27567;DHT22;15006;48.584;9.186;2022-08-01T02:02:07;14.10;68.60
27567;DHT22;15006;48.584;9.186;2022-08-01T02:04:41;14.20;68.80
27567;DHT22;15006;48.584;9.186;2022-08-01T02:07:16;14.10;68.80
27567;DHT22;15006;48.584;9.186;2022-08-01T02:09:47;14.20;68.10
27567;DHT22;15006;48.584;9.186;2022-08-01T02:12:16;14.20;68.80
27567;DHT22;15006;48.584;9.186;2022-08-01T02:14:46;14.20;68.80
27567;DHT22;15006;48.584;9.186;2022-08-01T02:17:16;14.20;68.80
27567;DHT22;15006;48.584;9.186;2022-08-01T02:19:43;14.20;68.80
27567;DHT22;15006;48.584;9.186;2022-08-01T02:22:29;14.30;68.50
27567;DHT22;15006;48.584;9.186;2022-08-01T02:25:02;14.30;69.10
27567;DHT22;15006;48.584;9.186;2022-08-01T02:27:40;14.30;68.60
27567;DHT22;15006;48.584;9.186;2022-08-01T02:30:12;14.40;68.80
27567;DHT22;15006;48.584;9.186;2022-08-01T02:32:49;14.40;67.80
27567;DHT22;15006;48.584;9.186;2022-08-01T02:35:21;14.50;68.10
27567;DHT22;15006;48.584;9.186;2022-08-01T02:37:50;14.50;68.00
27567;DHT22;15006;48.584;9.186;2022-08-01T02:40:18;14.50;67.70
27567;DHT22;15006;48.584;9.186;2022-08-01T02:42:49;14.60;67.90
27567;DHT22;15006;48.584;9.186;2022-08-01T02:45:19;14.60;68.00
27567;DHT22;15006;48.584;9.186;2022-08-01T02:47:48;14.70;67.90
27567;DHT22;15006;48.584;9.186;2022-08-01T02:50:17;14.70;67.80
27567;DHT22;15006;48.584;9.186;2022-08-01T02:52:48;14.70;67.60
27567;DHT22;15006;48.584;9.186;2022-08-01T02:55:16;14.70;67.50
27567;DHT22;15006;48.584;9.186;2022-08-01T02:57:45;14.70;67.60
27567;DHT22;15006;48.584;9.186;2022-08-01T03:00:14;14.70;67.40
27567;DHT22;15006;48.584;9.186;2022-08-01T03:02:41;14.70;67.70
27567;DHT22;15006;48.584;9.186;2022-08-01T03:05:12;14.70;67.80
27567;DHT22;15006;48.584;9.186;2022-08-01T03:07:39;14.70;67.60
27567;DHT22;15006;48.584;9.186;2022-08-01T03:10:06;14.70;67.70
27567;DHT22;15006;48.584;9.186;2022-08-01T03:12:33;14.70;67.60
27567;DHT22;15006;48.584;9.186;2022-08-01T03:15:02;14.70;67.80
27567;DHT22;15006;48.584;9.186;2022-08-01T03:17:30;14.70;67.90
27567;DHT22;15006;48.584;9.186;2022-08-01T03:19:58;14.60;67.80
27567;DHT22;15006;48.584;9.186;2022-08-01T03:22:26;14.70;68.10
27567;DHT22;15006;48.584;9.186;2022-08-01T03:24:54;14.60;68.10
27567;DHT22;15006;48.584;9.186;2022-08-01T03:27:23;14.60;68.30
27567;DHT22;15006;48.584;9.186;2022-08-01T03:29:51;14.60;68.70
27567;DHT22;15006;48.584;9.186;2022-08-01T03:32:21;14.50;68.80
27567;DHT22;15006;48.584;9.186;2022-08-01T03:34:48;14.50;69.00
27567;DHT22;15006;48.584;9.186;2022-08-01T03:39:54;14.50;70.00
27567;DHT22;15006;48.584;9.186;2022-08-01T03:42:36;14.50;69.80
27567;DHT22;15006;48.584;9.186;2022-08-01T03:45:08;14.50;70.00
27567;DHT22;15006;48.584;9.186;2022-08-01T03:47:38;14.50;69.70
27567;DHT22;15006;48.584;9.186;2022-08-01T03:50:09;14.50;69.60
27567;DHT22;15006;48.584;9.186;2022-08-01T03:52:38;14.50;69.80
27567;DHT22;15006;48.584;9.186;2022-08-01T03:55:06;14.50;70.00
27567;DHT22;15006;48.584;9.186;2022-08-01T03:57:33;14.50;70.30
27567;DHT22;15006;48.584;9.186;2022-08-01T04:00:01;14.50;70.20
27567;DHT22;15006;48.584;9.186;2022-08-01T04:02:31;14.50;70.10
27567;DHT22;15006;48.584;9.186;2022-08-01T04:04:59;14.40;70.20
27567;DHT22;15006;48.584;9.186;2022-08-01T04:07:27;14.40;70.40
27567;DHT22;15006;48.584;9.186;2022-08-01T04:09:55;14.40;70.70
27567;DHT22;15006;48.584;9.186;2022-08-01T04:12:24;14.30;70.70
27567;DHT22;15006;48.584;9.186;2022-08-01T04:14:51;14.30;71.00
27567;DHT22;15006;48.584;9.186;2022-08-01T04:17:19;14.30;71.20
27567;DHT22;15006;48.584;9.186;2022-08-01T04:19:45;14.30;71.60
27567;DHT22;15006;48.584;9.186;2022-08-01T04:22:14;14.30;71.80
27567;DHT22;15006;48.584;9.186;2022-08-01T04:24:46;14.30;72.10
27567;DHT22;15006;48.584;9.186;2022-08-01T04:27:23;14.40;72.60
27567;DHT22;15006;48.584;9.186;2022-08-01T04:29:58;14.40;72.60
27567;DHT22;15006;48.584;9.186;2022-08-01T04:32:28;14.40;72.50
27567;DHT22;15006;48.584;9.186;2022-08-01T04:34:58;14.50;72.40
27567;DHT22;15006;48.584;9.186;2022-08-01T04:37:25;14.50;71.90
27567;DHT22;15006;48.584;9.186;2022-08-01T04:39:52;14.50;71.70
27567;DHT22;15006;48.584;9.186;2022-08-01T04:42:19;14.60;71.60
27567;DHT22;15006;48.584;9.186;2022-08-01T04:44:46;14.60;71.70
27567;DHT22;15006;48.584;9.186;2022-08-01T04:47:12;14.60;71.60
27567;DHT22;15006;48.584;9.186;2022-08-01T04:49:39;14.60;71.80
27567;DHT22;15006;48.584;9.186;2022-08-01T04:52:06;14.50;71.60
27567;DHT22;15006;48.584;9.186;2022-08-01T04:54:36;14.50;71.60
27567;DHT22;15006;48.584;9.186;2022-08-01T04:57:03;14.40;71.90
27567;DHT22;15006;48.584;9.186;2022-08-01T04:59:32;14.40;71.80
27567;DHT22;15006;48.584;9.186;2022-08-01T05:02:17;14.30;72.00
27567;DHT22;15006;48.584;9.186;2022-08-01T05:04:45;14.30;72.90
27567;DHT22;15006;48.584;9.186;2022-08-01T05:07:14;14.20;72.50
27567;DHT22;15006;48.584;9.186;2022-08-01T05:09:42;14.20;72.70
27567;DHT22;15006;48.584;9.186;2022-08-01T05:12:09;14.20;73.20
27567;DHT22;15006;48.584;9.186;2022-08-01T05:14:36;14.20;73.70
27567;DHT22;15006;48.584;9.186;2022-08-01T05:17:05;14.20;74.20
27567;DHT22;15006;48.584;9.186;2022-08-01T05:19:34;14.20;74.80
27567;DHT22;15006;48.584;9.186;2022-08-01T05:22:01;14.30;74.90
27567;DHT22;15006;48.584;9.186;2022-08-01T05:24:35;14.40;75.00
27567;DHT22;15006;48.584;9.186;2022-08-01T05:27:03;14.50;74.70
27567;DHT22;15006;48.584;9.186;2022-08-01T05:29:30;14.50;74.60
27567;DHT22;15006;48.584;9.186;2022-08-01T05:31:56;14.60;74.90
27567;DHT22;15006;48.584;9.186;2022-08-01T05:34:24;14.70;75.20
27567;DHT22;15006;48.584;9.186;2022-08-01T05:36:50;14.90;75.20
27567;DHT22;15006;48.584;9.186;2022-08-01T05:39:16;15.00;74.70
27567;DHT22;15006;48.584;9.186;2022-08-01T05:41:42;15.10;74.40
27567;DHT22;15006;48.584;9.186;2022-08-01T05:44:10;15.20;74.00
27567;DHT22;15006;48.584;9.186;2022-08-01T05:46:37;15.40;73.90
27567;DHT22;15006;48.584;9.186;2022-08-01T05:49:04;15.50;74.10
27567;DHT22;15006;48.584;9.186;2022-08-01T05:51:31;15.60;74.10
27567;DHT22;15006;48.584;9.186;2022-08-01T05:53:57;15.80;74.80
27567;DHT22;15006;48.584;9.186;2022-08-01T05:56:24;15.90;73.70
27567;DHT22;15006;48.584;9.186;2022-08-01T05:58:50;16.10;73.10
27567;DHT22;15006;48.584;9.186;2022-08-01T06:01:18;16.20;72.50
27567;DHT22;15006;48.584;9.186;2022-08-01T06:03:44;16.30;71.50
27567;DHT22;15006;48.584;9.186;2022-08-01T06:06:11;16.50;72.10
27567;DHT22;15006;48.584;9.186;2022-08-01T06:08:37;16.60;70.70
27567;DHT22;15006;48.584;9.186;2022-08-01T06:11:03;16.60;70.20
27567;DHT22;15006;48.584;9.186;2022-08-01T06:13:29;16.80;70.90
27567;DHT22;15006;48.584;9.186;2022-08-01T06:15:55;16.90;70.00
27567;DHT22;15006;48.584;9.186;2022-08-01T06:18:21;16.90;69.20
27567;DHT22;15006;48.584;9.186;2022-08-01T06:20:47;17.00;69.60
27567;DHT22;15006;48.584;9.186;2022-08-01T06:23:13;17.00;69.50
27567;DHT22;15006;48.584;9.186;2022-08-01T06:25:42;16.90;69.10
27567;DHT22;15006;48.584;9.186;2022-08-01T06:28:09;17.00;68.80
27567;DHT22;15006;48.584;9.186;2022-08-01T06:30:35;17.00;68.50
27567;DHT22;15006;48.584;9.186;2022-08-01T06:33:01;17.00;68.80
27567;DHT22;15006;48.584;9.186;2022-08-01T06:35:28;17.10;68.70
27567;DHT22;15006;48.584;9.186;2022-08-01T06:37:59;17.10;68.50
27567;DHT22;15006;48.584;9.186;2022-08-01T06:40:25;17.10;68.40
27567;DHT22;15006;48.584;9.186;2022-08-01T06:42:51;17.10;68.20
27567;DHT22;15006;48.584;9.186;2022-08-01T06:45:17;17.10;68.30
27567;DHT22;15006;48.584;9.186;2022-08-01T06:47:45;17.10;68.20
27567;DHT22;15006;48.584;9.186;2022-08-01T06:50:11;17.20;68.30
27567;DHT22;15006;48.584;9.186;2022-08-01T06:52:38;17.30;68.10
27567;DHT22;15006;48.584;9.186;2022-08-01T06:55:05;17.30;67.80
27567;DHT22;15006;48.584;9.186;2022-08-01T06:57:31;17.40;67.90
27567;DHT22;15006;48.584;9.186;2022-08-01T07:00:02;17.40;67.80
27567;DHT22;15006;48.584;9.186;2022-08-01T07:02:33;17.50;67.20
27567;DHT22;15006;48.584;9.186;2022-08-01T07:04:59;17.60;67.40
27567;DHT22;15006;48.584;9.186;2022-08-01T07:07:26;17.60;67.40
27567;DHT22;15006;48.584;9.186;2022-08-01T07:09:53;17.80;67.50
27567;DHT22;15006;48.584;9.186;2022-08-01T07:12:19;17.80;67.50
27567;DHT22;15006;48.584;9.186;2022-08-01T07:14:45;18.00;67.70
27567;DHT22;15006;48.584;9.186;2022-08-01T07:17:11;18.20;67.70
27567;DHT22;15006;48.584;9.186;2022-08-01T07:19:38;18.30;67.60
27567;DHT22;15006;48.584;9.186;2022-08-01T07:24:31;18.60;66.60
27567;DHT22;15006;48.584;9.186;2022-08-01T07:26:57;18.90;66.90
27567;DHT22;15006;48.584;9.186;2022-08-01T07:29:24;19.10;66.10
27567;DHT22;15006;48.584;9.186;2022-08-01T07:31:54;19.30;65.80
27567;DHT22;15006;48.584;9.186;2022-08-01T07:34:22;19.50;65.00
27567;DHT22;15006;48.584;9.186;2022-08-01T07:36:48;19.80;65.50
27567;DHT22;15006;48.584;9.186;2022-08-01T07:39:14;20.00;64.80
27567;DHT22;15006;48.584;9.186;2022-08-01T07:41:40;20.20;63.90
27567;DHT22;15006;48.584;9.186;2022-08-01T07:44:06;20.40;63.00
27567;DHT22;15006;48.584;9.186;2022-08-01T07:46:32;20.60;62.10
27567;DHT22;15006;48.584;9.186;2022-08-01T07:48:58;20.80;61.80
27567;DHT22;15006;48.584;9.186;2022-08-01T07:51:24;21.10;62.20
27567;DHT22;15006;48.584;9.186;2022-08-01T07:53:50;21.30;60.30
27567;DHT22;15006;48.584;9.186;2022-08-01T07:56:16;21.60;59.70
27567;DHT22;15006;48.584;9.186;2022-08-01T07:58:42;21.80;58.70
27567;DHT22;15006;48.584;9.186;2022-08-01T08:01:09;22.00;58.60
27567;DHT22;15006;48.584;9.186;2022-08-01T08:03:34;22.20;58.00
27567;DHT22;15006;48.584;9.186;2022-08-01T08:06:00;22.40;57.50
27567;DHT22;15006;48.584;9.186;2022-08-01T08:08:27;22.60;56.80
27567;DHT22;15006;48.584;9.186;2022-08-01T08:10:56;22.80;56.20
27567;DHT22;15006;48.584;9.186;2022-08-01T08:13:22;23.00;56.10
27567;DHT22;15006;48.584;9.186;2022-08-01T08:15:48;23.30;55.60
27567;DHT22;15006;48.584;9.186;2022-08-01T08:18:14;23.50;54.80
27567;DHT22;15006;48.584;9.186;2022-08-01T08:20:40;23.70;54.50
27567;DHT22;15006;48.584;9.186;2022-08-01T08:23:06;24.00;53.50
27567;DHT22;15006;48.584;9.186;2022-08-01T08:25:52;24.30;53.40
27567;DHT22;15006;48.584;9.186;2022-08-01T08:28:18;24.60;52.60
27567;DHT22;15006;48.584;9.186;2022-08-01T08:30:44;24.80;52.40
27567;DHT22;15006;48.584;9.186;2022-08-01T08:33:10;25.00;51.20
27567;DHT22;15006;48.584;9.186;2022-08-01T08:35:39;25.20;49.90
27567;DHT22;15006;48.584;9.186;2022-08-01T08:38:06;25.30;50.50
27567;DHT22;15006;48.584;9.186;2022-08-01T08:40:34;25.30;50.20
27567;DHT22;15006;48.584;9.186;2022-08-01T08:43:03;25.40;49.50
27567;DHT22;15006;48.584;9.186;2022-08-01T08:45:30;25.50;49.70
27567;DHT22;15006;48.584;9.186;2022-08-01T08:47:57;25.60;49.00
27567;DHT22;15006;48.584;9.186;2022-08-01T08:50:26;25.70;49.30
27567;DHT22;15006;48.584;9.186;2022-08-01T08:52:55;25.80;49.00
27567;DHT22;15006;48.584;9.186;2022-08-01T08:55:23;25.90;49.00
27567;DHT22;15006;48.584;9.186;2022-08-01T08:57:50;26.00;49.30
27567;DHT22;15006;48.584;9.186;2022-08-01T09:00:18;26.20;48.40
27567;DHT22;15006;48.584;9.186;2022-08-01T09:02:45;26.40;47.90
27567;DHT22;15006;48.584;9.186;2022-08-01T09:05:13;26.50;47.00
27567;DHT22;15006;48.584;9.186;2022-08-01T09:07:39;26.50;47.20
27567;DHT22;15006;48.584;9.186;2022-08-01T09:10:05;26.60;46.80
27567;DHT22;15006;48.584;9.186;2022-08-01T09:12:33;26.60;46.70
27567;DHT22;15006;48.584;9.186;2022-08-01T09:14:59;26.80;46.80
27567;DHT22;15006;48.584;9.186;2022-08-01T09:17:25;26.90;45.90
27567;DHT22;15006;48.584;9.186;2022-08-01T09:19:53;27.10;46.20
27567;DHT22;15006;48.584;9.186;2022-08-01T09:22:22;27.10;45.10
27567;DHT22;15006;48.584;9.186;2022-08-01T09:25:05;27.20;45.30
27567;DHT22;15006;48.584;9.186;2022-08-01T09:27:33;27.20;46.00
27567;DHT22;15006;48.584;9.186;2022-08-01T09:30:12;27.30;45.80
27567;DHT22;15006;48.584;9.186;2022-08-01T09:33:00;27.50;45.30
27567;DHT22;15006;48.584;9.186;2022-08-01T09:35:28;27.60;45.20
27567;DHT22;15006;48.584;9.186;2022-08-01T09:43:25;28.30;42.50
27567;DHT22;15006;48.584;9.186;2022-08-01T09:45:52;28.50;42.90
27567;DHT22;15006;48.584;9.186;2022-08-01T09:48:20;28.60;42.10
27567;DHT22;15006;48.584;9.186;2022-08-01T09:50:48;28.50;41.60
27567;DHT22;15006;48.584;9.186;2022-08-01T09:55:51;28.50;41.30
27567;DHT22;15006;48.584;9.186;2022-08-01T09:58:21;28.40;41.30
27567;DHT22;15006;48.584;9.186;2022-08-01T10:00:59;28.40;41.70
27567;DHT22;15006;48.584;9.186;2022-08-01T10:03:26;28.40;42.00
27567;DHT22;15006;48.584;9.186;2022-08-01T10:05:55;28.50;41.50
27567;DHT22;15006;48.584;9.186;2022-08-01T10:08:23;28.70;41.20
27567;DHT22;15006;48.584;9.186;2022-08-01T10:11:11;28.80;41.10
27567;DHT22;15006;48.584;9.186;2022-08-01T10:13:38;29.00;40.90
27567;DHT22;15006;48.584;9.186;2022-08-01T10:16:05;29.10;41.10
27567;DHT22;15006;48.584;9.186;2022-08-01T10:18:34;29.20;40.80
27567;DHT22;15006;48.584;9.186;2022-08-01T10:21:02;29.40;40.90
27567;DHT22;15006;48.584;9.186;2022-08-01T10:23:34;29.50;39.70
27567;DHT22;15006;48.584;9.186;2022-08-01T10:26:01;29.50;38.60
27567;DHT22;15006;48.584;9.186;2022-08-01T10:28:30;29.30;39.00
27567;DHT22;15006;48.584;9.186;2022-08-01T10:31:00;29.10;38.70
27567;DHT22;15006;48.584;9.186;2022-08-01T10:33:29;28.70;39.20
27567;DHT22;15006;48.584;9.186;2022-08-01T10:35:56;28.40;39.50
27567;DHT22;15006;48.584;9.186;2022-08-01T10:38:23;28.00;40.00
27567;DHT22;15006;48.584;9.186;2022-08-01T10:40:50;27.70;41.00
27567;DHT22;15006;48.584;9.186;2022-08-01T10:43:17;27.50;41.80
27567;DHT22;15006;48.584;9.186;2022-08-01T10:45:44;27.40;42.70
27567;DHT22;15006;48.584;9.186;2022-08-01T10:48:16;27.60;42.40
27567;DHT22;15006;48.584;9.186;2022-08-01T10:50:48;27.80;41.60
27567;DHT22;15006;48.584;9.186;2022-08-01T10:53:23;28.10;41.80
27567;DHT22;15006;48.584;9.186;2022-08-01T10:58:23;28.60;41.40
27567;DHT22;15006;48.584;9.186;2022-08-01T11:03:39;28.90;40.00
27567;DHT22;15006;48.584;9.186;2022-08-01T11:06:05;28.80;39.60
27567;DHT22;15006;48.584;9.186;2022-08-01T11:08:34;28.70;40.80
27567;DHT22;15006;48.584;9.186;2022-08-01T11:11:02;28.50;40.00
27567;DHT22;15006;48.584;9.186;2022-08-01T11:16:31;28.00;41.10
27567;DHT22;15006;48.584;9.186;2022-08-01T11:18:59;27.80;40.70
27567;DHT22;15006;48.584;9.186;2022-08-01T11:22:01;27.60;41.10
27567;DHT22;15006;48.584;9.186;2022-08-01T11:32:47;26.70;42.30
27567;DHT22;15006;48.584;9.186;2022-08-01T11:35:15;26.50;42.70
27567;DHT22;15006;48.584;9.186;2022-08-01T11:37:41;26.40;43.10
27567;DHT22;15006;48.584;9.186;2022-08-01T11:50:41;25.80;46.00
27567;DHT22;15006;48.584;9.186;2022-08-01T11:53:07;25.90;46.00
27567;DHT22;15006;48.584;9.186;2022-08-01T11:55:34;26.00;45.70
27567;DHT22;15006;48.584;9.186;2022-08-01T11:58:05;26.10;46.40
27567;DHT22;15006;48.584;9.186;2022-08-01T12:00:32;26.40;46.00
27567;DHT22;15006;48.584;9.186;2022-08-01T12:03:04;26.70;45.80
27567;DHT22;15006;48.584;9.186;2022-08-01T12:05:33;27.10;46.20
27567;DHT22;15006;48.584;9.186;2022-08-01T12:08:03;27.50;45.40
27567;DHT22;15006;48.584;9.186;2022-08-01T12:10:33;27.90;43.90
27567;DHT22;15006;48.584;9.186;2022-08-01T12:13:04;28.30;43.90
27567;DHT22;15006;48.584;9.186;2022-08-01T12:15:34;28.60;43.10
27567;DHT22;15006;48.584;9.186;2022-08-01T12:18:03;28.80;41.60
27567;DHT22;15006;48.584;9.186;2022-08-01T12:23:04;28.90;41.20
27567;DHT22;15006;48.584;9.186;2022-08-01T12:25:35;28.90;40.90
27567;DHT22;15006;48.584;9.186;2022-08-01T12:28:05;28.80;41.00
27567;DHT22;15006;48.584;9.186;2022-08-01T12:30:35;28.80;41.00
27567;DHT22;15006;48.584;9.186;2022-08-01T12:33:05;28.70;41.20
27567;DHT22;15006;48.584;9.186;2022-08-01T12:35:33;28.60;41.20
27567;DHT22;15006;48.584;9.186;2022-08-01T12:38:05;28.50;41.10
27567;DHT22;15006;48.584;9.186;2022-08-01T12:40:35;28.50;42.30
27567;DHT22;15006;48.584;9.186;2022-08-01T12:43:05;28.60;43.10
27567;DHT22;15006;48.584;9.186;2022-08-01T12:48:07;29.30;43.00
27567;DHT22;15006;48.584;9.186;2022-08-01T12:50:38;29.80;42.30
27567;DHT22;15006;48.584;9.186;2022-08-01T12:53:05;30.30;41.40
27567;DHT22;15006;48.584;9.186;2022-08-01T12:55:31;30.80;40.10
27567;DHT22;15006;48.584;9.186;2022-08-01T12:58:09;31.20;38.70
27567;DHT22;15006;48.584;9.186;2022-08-01T13:00:39;31.30;38.00
27567;DHT22;15006;48.584;9.186;2022-08-01T13:03:11;31.40;37.50
27567;DHT22;15006;48.584;9.186;2022-08-01T13:08:16;31.60;39.00
27567;DHT22;15006;48.584;9.186;2022-08-01T13:10:44;31.80;38.40
27567;DHT22;15006;48.584;9.186;2022-08-01T13:13:12;32.20;38.20
27567;DHT22;15006;48.584;9.186;2022-08-01T13:15:41;32.70;37.30
27567;DHT22;15006;48.584;9.186;2022-08-01T13:18:27;33.10;37.30
27567;DHT22;15006;48.584;9.186;2022-08-01T13:23:59;34.00;35.90
27567;DHT22;15006;48.584;9.186;2022-08-01T13:27:00;34.20;33.50
27567;DHT22;15006;48.584;9.186;2022-08-01T13:29:38;34.50;33.30
27567;DHT22;15006;48.584;9.186;2022-08-01T13:32:18;34.50;32.20
27567;DHT22;15006;48.584;9.186;2022-08-01T13:34:45;34.40;31.40
27567;DHT22;15006;48.584;9.186;2022-08-01T13:37:11;34.30;31.80
27567;DHT22;15006;48.584;9.186;2022-08-01T13:39:38;34.10;32.00
27567;DHT22;15006;48.584;9.186;2022-08-01T13:42:07;33.80;33.20
27567;DHT22;15006;48.584;9.186;2022-08-01T13:44:34;33.80;35.00
27567;DHT22;15006;48.584;9.186;2022-08-01T13:47:02;33.90;33.90
27567;DHT22;15006;48.584;9.186;2022-08-01T13:49:29;34.10;33.20
27567;DHT22;15006;48.584;9.186;2022-08-01T13:51:55;34.30;33.60
27567;DHT22;15006;48.584;9.186;2022-08-01T13:54:21;34.60;33.70
27567;DHT22;15006;48.584;9.186;2022-08-01T13:56:49;34.90;33.10
27567;DHT22;15006;48.584;9.186;2022-08-01T13:59:15;35.20;32.90
27567;DHT22;15006;48.584;9.186;2022-08-01T14:01:42;35.50;31.90
27567;DHT22;15006;48.584;9.186;2022-08-01T14:04:07;35.50;32.10
27567;DHT22;15006;48.584;9.186;2022-08-01T14:06:34;35.70;31.20
27567;DHT22;15006;48.584;9.186;2022-08-01T14:09:02;35.80;30.60
27567;DHT22;15006;48.584;9.186;2022-08-01T14:11:29;36.00;30.40
27567;DHT22;15006;48.584;9.186;2022-08-01T14:13:55;35.90;30.00
27567;DHT22;15006;48.584;9.186;2022-08-01T14:16:21;35.70;29.50
27567;DHT22;15006;48.584;9.186;2022-08-01T14:18:47;35.40;29.70
27567;DHT22;15006;48.584;9.186;2022-08-01T14:21:12;35.00;29.80
27567;DHT22;15006;48.584;9.186;2022-08-01T14:23:40;34.80;30.70
27567;DHT22;15006;48.584;9.186;2022-08-01T14:26:09;34.70;30.80
27567;DHT22;15006;48.584;9.186;2022-08-01T14:28:36;34.50;30.50
27567;DHT22;15006;48.584;9.186;2022-08-01T14:31:02;34.30;30.50
27567;DHT22;15006;48.584;9.186;2022-08-01T14:33:28;34.10;30.70
27567;DHT22;15006;48.584;9.186;2022-08-01T14:35:56;33.80;31.00
27567;DHT22;15006;48.584;9.186;2022-08-01T14:38:22;33.40;31.40
27567;DHT22;15006;48.584;9.186;2022-08-01T14:40:48;33.00;31.60
27567;DHT22;15006;48.584;9.186;2022-08-01T14:43:20;32.60;32.10
27567;DHT22;15006;48.584;9.186;2022-08-01T14:45:47;32.20;32.70
27567;DHT22;15006;48.584;9.186;2022-08-01T14:48:17;31.80;32.90
27567;DHT22;15006;48.584;9.186;2022-08-01T14:50:43;31.30;33.30
27567;DHT22;15006;48.584;9.186;2022-08-01T14:53:10;30.80;34.00
27567;DHT22;15006;48.584;9.186;2022-08-01T14:55:36;30.50;34.50
27567;DHT22;15006;48.584;9.186;2022-08-01T14:58:02;30.00;35.00
27567;DHT22;15006;48.584;9.186;2022-08-01T15:00:28;29.70;35.80
27567;DHT22;15006;48.584;9.186;2022-08-01T15:02:54;29.40;36.20
27567;DHT22;15006;48.584;9.186;2022-08-01T15:05:20;29.00;36.60
27567;DHT22;15006;48.584;9.186;2022-08-01T15:07:46;28.80;37.30
27567;DHT22;15006;48.584;9.186;2022-08-01T15:10:12;28.50;38.40
27567;DHT22;15006;48.584;9.186;2022-08-01T15:12:39;28.30;38.30
27567;DHT22;15006;48.584;9.186;2022-08-01T15:15:05;28.10;38.60
27567;DHT22;15006;48.584;9.186;2022-08-01T15:17:32;27.80;38.90
27567;DHT22;15006;48.584;9.186;2022-08-01T15:20:04;27.70;39.60
27567;DHT22;15006;48.584;9.186;2022-08-01T15:22:31;27.50;40.00
27567;DHT22;15006;48.584;9.186;2022-08-01T15:24:59;27.50;40.80
27567;DHT22;15006;48.584;9.186;2022-08-01T15:27:28;27.60;41.30
27567;DHT22;15006;48.584;9.186;2022-08-01T15:29:54;27.80;41.10
27567;DHT22;15006;48.584;9.186;2022-08-01T15:32:21;28.00;40.90
27567;DHT22;15006;48.584;9.186;2022-08-01T15:34:48;28.20;40.70
27567;DHT22;15006;48.584;9.186;2022-08-01T15:37:14;28.20;40.40
27567;DHT22;15006;48.584;9.186;2022-08-01T15:39:40;28.10;40.10
27567;DHT22;15006;48.584;9.186;2022-08-01T15:42:10;27.90;40.60
27567;DHT22;15006;48.584;9.186;2022-08-01T15:44:38;27.80;41.30
27567;DHT22;15006;48.584;9.186;2022-08-01T15:47:05;27.50;41.70
27567;DHT22;15006;48.584;9.186;2022-08-01T15:49:32;27.30;41.90
27567;DHT22;15006;48.584;9.186;2022-08-01T15:51:58;27.00;42.40
27567;DHT22;15006;48.584;9.186;2022-08-01T15:54:24;26.70;42.90
27567;DHT22;15006;48.584;9.186;2022-08-01T15:56:50;26.50;43.80
27567;DHT22;15006;48.584;9.186;2022-08-01T15:59:17;26.20;44.40
27567;DHT22;15006;48.584;9.186;2022-08-01T16:01:43;26.00;44.90
27567;DHT22;15006;48.584;9.186;2022-08-01T16:04:09;25.90;45.70
27567;DHT22;15006;48.584;9.186;2022-08-01T16:06:35;25.80;46.10
27567;DHT22;15006;48.584;9.186;2022-08-01T16:09:03;25.80;46.00
27567;DHT22;15006;48.584;9.186;2022-08-01T16:11:30;25.90;46.50
27567;DHT22;15006;48.584;9.186;2022-08-01T16:13:56;26.10;46.30
27567;DHT22;15006;48.584;9.186;2022-08-01T16:16:22;26.30;46.20
27567;DHT22;15006;48.584;9.186;2022-08-01T16:18:48;26.40;45.60
27567;DHT22;15006;48.584;9.186;2022-08-01T16:21:15;26.50;45.50
27567;DHT22;15006;48.584;9.186;2022-08-01T16:23:42;26.60;45.40
27567;DHT22;15006;48.584;9.186;2022-08-01T16:26:09;26.60;44.80
27567;DHT22;15006;48.584;9.186;2022-08-01T16:28:35;26.60;45.30
27567;DHT22;15006;48.584;9.186;2022-08-01T16:31:02;26.50;45.40
27567;DHT22;15006;48.584;9.186;2022-08-01T16:33:28;26.40;45.70
27567;DHT22;15006;48.584;9.186;2022-08-01T16:35:55;26.30;46.20
27567;DHT22;15006;48.584;9.186;2022-08-01T16:38:21;26.20;46.30
27567;DHT22;15006;48.584;9.186;2022-08-01T16:40:49;26.00;46.80